createdAt,value
2018-08-30T00:01:24.440Z,7.27
2018-08-30T00:03:51.670Z,6.57
2018-08-30T00:06:18.805Z,6.27
2018-08-30T00:08:45.945Z,6.70
2018-08-30T00:11:13.099Z,6.93
2018-08-30T00:13:40.246Z,6.13
2018-08-30T00:16:07.368Z,6.17
2018-08-30T00:18:34.507Z,5.77
2018-08-30T00:21:01.804Z,5.70
2018-08-30T00:23:28.946Z,5.67
2018-08-30T00:25:56.075Z,5.50
2018-08-30T00:28:23.301Z,5.20
2018-08-30T00:30:50.403Z,5.00
2018-08-30T00:33:17.549Z,5.70
2018-08-30T00:35:44.787Z,5.80
2018-08-30T00:38:11.905Z,6.80
2018-08-30T00:40:39.053Z,7.20
2018-08-30T00:43:06.316Z,6.70
2018-08-30T00:45:33.464Z,7.10
2018-08-30T00:48:00.645Z,7.80
2018-08-30T00:50:27.788Z,7.50
2018-08-30T00:52:55.026Z,8.10
2018-08-30T00:55:22.149Z,7.80
2018-08-30T00:57:49.264Z,8.10
2018-08-30T01:00:16.441Z,7.97
2018-08-30T01:02:43.577Z,8.53
2018-08-30T01:05:10.853Z,8.80
2018-08-30T01:07:38.036Z,9.50
2018-08-30T01:10:05.305Z,9.50
2018-08-30T01:12:32.476Z,10.37
2018-08-30T01:14:59.628Z,11.33
2018-08-30T01:17:26.777Z,10.23
2018-08-30T01:19:53.913Z,11.57
2018-08-30T01:22:21.052Z,11.50
2018-08-30T01:24:48.193Z,11.53
2018-08-30T01:27:15.351Z,11.37
2018-08-30T01:29:42.548Z,12.87
2018-08-30T01:32:09.680Z,12.50
2018-08-30T01:34:36.873Z,12.63
2018-08-30T01:37:04.121Z,12.77
2018-08-30T01:39:31.279Z,13.90
2018-08-30T01:41:58.416Z,14.80
2018-08-30T01:44:25.559Z,13.70
2018-08-30T01:46:52.733Z,13.80
2018-08-30T01:49:19.834Z,14.63
2018-08-30T01:51:46.938Z,14.40
2018-08-30T01:54:14.046Z,15.50
2018-08-30T01:56:41.142Z,16.00
2018-08-30T01:59:08.254Z,15.03
2018-08-30T02:01:35.374Z,15.37
2018-08-30T02:04:02.557Z,16.90
2018-08-30T02:06:29.656Z,16.90
2018-08-30T02:08:56.798Z,17.57
2018-08-30T02:11:23.893Z,17.80
2018-08-30T02:13:50.994Z,16.90
2018-08-30T02:16:18.093Z,17.70
2018-08-30T02:18:45.312Z,18.20
2018-08-30T02:21:13.236Z,17.70
2018-08-30T02:23:40.359Z,17.50
2018-08-30T02:26:07.455Z,17.07
2018-08-30T02:28:34.549Z,18.43
2018-08-30T02:31:01.662Z,17.87
2018-08-30T02:33:28.757Z,18.03
2018-08-30T02:35:55.886Z,17.17
2018-08-30T02:38:22.993Z,17.83
2018-08-30T02:40:50.182Z,18.97
2018-08-30T02:43:17.326Z,19.57
2018-08-30T02:45:44.439Z,20.70
2018-08-30T02:48:11.540Z,20.33
2018-08-30T02:50:38.642Z,19.60
2018-08-30T02:53:05.832Z,20.70
2018-08-30T02:55:32.920Z,21.47
2018-08-30T02:58:00.022Z,21.80
2018-08-30T03:00:27.126Z,21.73
2018-08-30T03:02:54.227Z,21.73
2018-08-30T03:05:21.328Z,21.20
2018-08-30T03:07:48.450Z,23.03
2018-08-30T03:10:15.553Z,22.83
2018-08-30T03:12:42.682Z,22.63
2018-08-30T03:15:13.060Z,22.80
2018-08-30T03:17:40.170Z,23.23
2018-08-30T03:20:08.352Z,22.53
2018-08-30T03:22:36.146Z,22.10
2018-08-30T03:25:03.588Z,23.67
2018-08-30T03:27:30.727Z,24.67
2018-08-30T03:29:57.826Z,24.23
2018-08-30T03:32:25.178Z,24.30
2018-08-30T03:34:52.273Z,23.27
2018-08-30T03:37:19.374Z,23.70
2018-08-30T03:39:46.766Z,23.37
2018-08-30T03:42:13.867Z,23.43
2018-08-30T03:44:40.976Z,23.90
2018-08-30T03:47:08.262Z,22.57
2018-08-30T03:49:35.217Z,24.57
2018-08-30T03:52:02.309Z,22.20
2018-08-30T03:54:29.418Z,22.43
2018-08-30T03:56:56.566Z,23.73
2018-08-30T03:59:23.978Z,24.30
2018-08-30T04:01:51.077Z,22.33
2018-08-30T04:04:18.218Z,24.00
2018-08-30T04:06:45.383Z,24.60
2018-08-30T04:09:12.493Z,24.17
2018-08-30T04:11:39.650Z,22.60
2018-08-30T04:14:06.904Z,25.47
2018-08-30T04:16:34.028Z,24.17
2018-08-30T04:19:06.686Z,24.30
2018-08-30T04:21:34.270Z,25.43
2018-08-30T04:24:01.857Z,24.50
2018-08-30T04:26:29.021Z,24.30
2018-08-30T04:28:56.110Z,26.00
2018-08-30T04:31:23.234Z,24.70
2018-08-30T04:33:50.377Z,25.27
2018-08-30T04:36:17.541Z,25.00
2018-08-30T04:38:44.671Z,25.13
2018-08-30T04:41:11.793Z,25.83
2018-08-30T04:43:38.918Z,25.30
2018-08-30T04:46:06.051Z,25.60
2018-08-30T04:48:33.149Z,24.73
2018-08-30T04:51:00.271Z,24.13
2018-08-30T04:53:28.791Z,26.40
2018-08-30T04:55:55.894Z,27.13
2018-08-30T04:58:22.985Z,24.57
2018-08-30T05:00:50.201Z,25.17
2018-08-30T05:03:17.292Z,25.20
2018-08-30T05:05:44.400Z,24.93
2018-08-30T05:08:12.722Z,25.63
2018-08-30T05:10:41.198Z,25.17
2018-08-30T05:13:10.256Z,24.43
2018-08-30T05:15:40.722Z,24.40
2018-08-30T05:18:13.396Z,25.10
2018-08-30T05:20:43.842Z,24.70
2018-08-30T05:23:11.554Z,23.10
2018-08-30T05:25:38.801Z,25.00
2018-08-30T05:28:07.488Z,25.57
2018-08-30T05:30:34.795Z,24.90
2018-08-30T05:33:01.906Z,25.20
2018-08-30T05:35:29.012Z,23.80
2018-08-30T05:37:56.228Z,24.53
2018-08-30T05:40:23.421Z,23.93
2018-08-30T05:42:50.608Z,24.37
2018-08-30T05:45:17.658Z,24.20
2018-08-30T05:47:46.301Z,23.43
2018-08-30T05:50:13.404Z,24.20
2018-08-30T05:52:40.520Z,23.50
2018-08-30T05:55:07.686Z,23.83
2018-08-30T05:57:34.806Z,24.23
2018-08-30T06:00:01.999Z,24.60
2018-08-30T06:02:34.147Z,23.20
2018-08-30T06:05:01.291Z,24.83
2018-08-30T06:07:28.447Z,24.30
2018-08-30T06:09:55.601Z,25.10
2018-08-30T06:12:22.810Z,25.10
2018-08-30T06:14:50.001Z,25.33
2018-08-30T06:17:17.075Z,24.37
2018-08-30T06:19:44.274Z,24.97
2018-08-30T06:22:11.417Z,24.00
2018-08-30T06:24:38.644Z,25.67
2018-08-30T06:27:05.747Z,24.57
2018-08-30T06:29:32.845Z,24.50
2018-08-30T06:32:00.508Z,23.40
2018-08-30T06:34:27.628Z,23.80
2018-08-30T06:36:54.721Z,23.40
2018-08-30T06:39:21.843Z,23.60
2018-08-30T06:41:48.933Z,22.47
2018-08-30T06:44:16.295Z,22.93
2018-08-30T06:46:43.397Z,22.57
2018-08-30T06:49:10.550Z,23.60
2018-08-30T06:51:37.673Z,24.47
2018-08-30T06:54:04.770Z,23.60
2018-08-30T06:56:31.872Z,23.00
2018-08-30T06:58:58.963Z,23.53
2018-08-30T07:01:26.097Z,23.60
2018-08-30T07:03:53.291Z,23.30
2018-08-30T07:06:20.389Z,22.20
2018-08-30T07:08:47.497Z,22.13
2018-08-30T07:11:14.602Z,22.93
2018-08-30T07:13:41.741Z,21.77
2018-08-30T07:16:09.039Z,23.00
2018-08-30T07:18:36.142Z,22.60
2018-08-30T07:21:03.246Z,21.60
2018-08-30T07:23:30.333Z,21.80
2018-08-30T07:25:57.425Z,21.10
2018-08-30T07:28:24.545Z,20.30
2018-08-30T07:30:51.675Z,20.90
2018-08-30T07:33:18.817Z,20.80
2018-08-30T07:35:45.968Z,20.87
2018-08-30T07:38:13.074Z,21.00
2018-08-30T07:40:40.217Z,21.60
2018-08-30T07:43:07.334Z,20.77
2018-08-30T07:45:34.589Z,19.60
2018-08-30T07:48:01.908Z,20.33
2018-08-30T07:50:29.025Z,18.17
2018-08-30T07:52:56.392Z,19.60
2018-08-30T07:55:23.473Z,17.63
2018-08-30T07:57:50.573Z,17.70
2018-08-30T08:00:17.962Z,17.20
2018-08-30T08:02:45.165Z,17.13
2018-08-30T08:05:12.253Z,15.83
2018-08-30T08:07:39.385Z,14.97
2018-08-30T08:10:06.477Z,14.93
2018-08-30T08:12:34.108Z,14.90
2018-08-30T08:15:01.192Z,13.57
2018-08-30T08:17:28.306Z,12.80
2018-08-30T08:19:55.417Z,13.03
2018-08-30T08:22:22.599Z,12.67
2018-08-30T08:24:49.722Z,12.07
2018-08-30T08:27:16.826Z,12.77
2018-08-30T08:29:43.940Z,10.50
2018-08-30T08:32:11.029Z,10.30
2018-08-30T08:34:38.164Z,10.00
2018-08-30T08:37:05.259Z,9.70
2018-08-30T08:39:32.413Z,8.97
2018-08-30T08:41:59.554Z,8.63
2018-08-30T08:44:26.664Z,8.10
2018-08-30T08:46:53.851Z,7.40
2018-08-30T08:49:20.950Z,7.33
2018-08-30T08:51:48.076Z,7.37
2018-08-30T08:54:15.755Z,7.73
2018-08-30T08:56:42.938Z,7.50
2018-08-30T08:59:10.055Z,8.60
2018-08-30T09:01:39.530Z,8.47
2018-08-30T09:04:06.658Z,7.40
2018-08-30T09:06:33.754Z,7.80
2018-08-30T09:09:00.878Z,6.50
2018-08-30T09:11:27.979Z,4.90
2018-08-30T09:13:55.075Z,4.87
2018-08-30T09:16:22.185Z,5.50
2018-08-30T09:18:49.289Z,4.97
2018-08-30T09:21:16.390Z,4.50
2018-08-30T09:23:43.482Z,4.30
2018-08-30T09:26:10.586Z,5.00
2018-08-30T09:28:37.677Z,5.13
2018-08-30T09:31:04.956Z,4.90
2018-08-30T09:33:32.093Z,4.93
2018-08-30T09:35:59.184Z,4.47
2018-08-30T09:38:26.284Z,4.17
2018-08-30T09:40:53.381Z,3.83
2018-08-30T09:43:20.510Z,3.70
2018-08-30T09:45:47.618Z,3.43
2018-08-30T09:48:14.718Z,3.27
2018-08-30T09:50:42.041Z,3.40
2018-08-30T09:53:09.414Z,3.40
2018-08-30T09:55:36.518Z,3.27
2018-08-30T09:58:03.620Z,3.10
2018-08-30T10:00:36.086Z,2.97
2018-08-30T10:03:03.186Z,3.33
2018-08-30T10:05:30.288Z,3.27
2018-08-30T10:07:57.751Z,2.90
2018-08-30T10:10:24.878Z,3.23
2018-08-30T10:12:51.943Z,2.90
2018-08-30T10:15:19.031Z,3.20
2018-08-30T10:17:46.134Z,3.30
2018-08-30T10:20:13.266Z,3.20
2018-08-30T10:22:40.361Z,3.47
2018-08-30T10:25:07.621Z,2.97
2018-08-30T10:27:34.827Z,3.17
2018-08-30T10:30:01.938Z,3.53
2018-08-30T10:32:29.105Z,3.00
2018-08-30T10:34:56.208Z,2.93
2018-08-30T10:37:23.304Z,3.20
2018-08-30T10:39:50.398Z,3.03
2018-08-30T10:42:17.489Z,2.83
2018-08-30T10:44:44.593Z,3.03
2018-08-30T10:47:11.689Z,2.43
2018-08-30T10:49:38.913Z,2.70
2018-08-30T10:52:05.878Z,2.90
2018-08-30T10:54:32.983Z,2.87
2018-08-30T10:57:00.113Z,2.50
2018-08-30T10:59:27.196Z,2.60
2018-08-30T11:01:54.362Z,2.80
2018-08-30T11:04:21.529Z,2.40
2018-08-30T11:06:48.682Z,2.33
2018-08-30T11:09:15.720Z,2.93
2018-08-30T11:11:42.822Z,2.30
2018-08-30T11:14:09.917Z,2.50
2018-08-30T11:16:37.142Z,3.07
2018-08-30T11:19:04.253Z,2.47
2018-08-30T11:21:31.348Z,2.30
2018-08-30T11:23:58.450Z,2.47
2018-08-30T11:26:25.549Z,2.43
2018-08-30T11:28:52.753Z,2.70
2018-08-30T11:31:19.833Z,1.83
2018-08-30T11:33:46.932Z,2.10
2018-08-30T11:36:14.262Z,2.17
2018-08-30T11:38:41.356Z,2.80
2018-08-30T11:41:08.685Z,2.40
2018-08-30T11:43:35.749Z,2.13
2018-08-30T11:46:02.899Z,2.50
2018-08-30T11:48:31.161Z,2.20
2018-08-30T11:51:00.755Z,3.70
2018-08-30T11:53:27.905Z,2.07
2018-08-30T11:55:56.022Z,2.30
2018-08-30T11:58:23.598Z,2.20
2018-08-30T12:00:50.840Z,2.20
2018-08-30T12:03:19.035Z,2.00
2018-08-30T12:05:47.806Z,2.20
2018-08-30T12:08:17.187Z,2.10
2018-08-30T12:10:46.851Z,2.20
2018-08-30T12:13:13.910Z,1.90
2018-08-30T12:15:43.089Z,2.00
2018-08-30T12:18:12.937Z,1.87
2018-08-30T12:20:40.147Z,2.30
2018-08-30T12:23:07.130Z,2.27
2018-08-30T12:25:34.233Z,2.00
2018-08-30T12:28:04.743Z,1.90
2018-08-30T12:30:34.248Z,2.20
2018-08-30T12:33:03.918Z,2.57
2018-08-30T12:35:33.917Z,2.63
2018-08-30T12:38:03.938Z,2.53
2018-08-30T12:40:31.102Z,2.17
2018-08-30T12:43:00.802Z,2.40
2018-08-30T12:45:31.748Z,3.17
2018-08-30T12:48:01.069Z,3.60
2018-08-30T12:50:30.982Z,2.60
2018-08-30T12:53:01.133Z,1.90
2018-08-30T12:55:28.444Z,1.77
2018-08-30T12:57:55.706Z,2.30
2018-08-30T13:00:22.875Z,2.20
2018-08-30T13:02:50.012Z,2.43
2018-08-30T13:05:17.185Z,2.60
2018-08-30T13:07:44.313Z,2.53
2018-08-30T13:10:11.480Z,2.30
2018-08-30T13:12:38.639Z,2.30
2018-08-30T13:15:05.911Z,2.00
2018-08-30T13:17:32.823Z,2.10
2018-08-30T13:19:59.893Z,2.00
2018-08-30T13:22:27.223Z,2.07
2018-08-30T13:24:55.052Z,2.43
2018-08-30T13:27:21.973Z,2.13
2018-08-30T13:29:49.218Z,2.33
2018-08-30T13:32:16.410Z,2.10
2018-08-30T13:34:43.630Z,2.20
2018-08-30T13:37:10.532Z,1.93
2018-08-30T13:39:37.694Z,2.53
2018-08-30T13:42:04.808Z,1.90
2018-08-30T13:44:32.068Z,1.57
2018-08-30T13:46:59.201Z,2.07
2018-08-30T13:49:25.939Z,1.77
2018-08-30T13:51:53.177Z,1.73
2018-08-30T13:54:20.347Z,2.20
2018-08-30T13:56:47.363Z,2.33
2018-08-30T13:59:14.536Z,2.33
2018-08-30T14:01:41.658Z,1.90
2018-08-30T14:04:08.755Z,1.90
2018-08-30T14:06:35.716Z,1.80
2018-08-30T14:09:03.299Z,1.70
2018-08-30T14:11:30.305Z,1.50
2018-08-30T14:13:57.491Z,1.80
2018-08-30T14:16:24.356Z,1.90
2018-08-30T14:18:51.670Z,2.10
2018-08-30T14:21:18.761Z,2.00
2018-08-30T14:23:45.864Z,1.70
2018-08-30T14:26:12.973Z,1.70
2018-08-30T14:28:40.333Z,1.97
2018-08-30T14:31:07.534Z,1.50
2018-08-30T14:33:34.644Z,2.00
2018-08-30T14:36:02.162Z,1.70
2018-08-30T14:38:29.603Z,2.00
2018-08-30T14:40:56.785Z,2.13
2018-08-30T14:43:23.825Z,1.80
2018-08-30T14:45:50.948Z,1.53
2018-08-30T14:48:17.997Z,1.57
2018-08-30T14:50:45.232Z,1.90
2018-08-30T14:53:12.410Z,1.43
2018-08-30T14:55:39.498Z,1.70
2018-08-30T14:58:07.810Z,2.10
2018-08-30T15:00:35.077Z,1.73
2018-08-30T15:03:02.302Z,1.43
2018-08-30T15:05:29.636Z,1.60
2018-08-30T15:07:56.417Z,1.67
2018-08-30T15:10:23.509Z,1.53
2018-08-30T15:12:50.706Z,1.57
2018-08-30T15:15:17.801Z,1.97
2018-08-30T15:17:44.901Z,1.90
2018-08-30T15:20:12.178Z,2.03
2018-08-30T15:22:39.147Z,1.90
2018-08-30T15:25:06.319Z,2.00
2018-08-30T15:27:33.447Z,1.50
2018-08-30T15:30:00.587Z,1.90
2018-08-30T15:32:27.665Z,1.73
2018-08-30T15:34:54.761Z,2.00
2018-08-30T15:37:21.868Z,1.73
2018-08-30T15:39:49.084Z,1.60
2018-08-30T15:42:16.464Z,1.50
2018-08-30T15:44:43.373Z,1.70
2018-08-30T15:47:10.979Z,1.70
2018-08-30T15:49:37.993Z,1.97
2018-08-30T15:52:05.191Z,1.70
2018-08-30T15:54:32.310Z,1.80
2018-08-30T15:56:59.446Z,1.90
2018-08-30T15:59:27.125Z,1.63
2018-08-30T16:01:56.026Z,1.40
2018-08-30T16:04:23.480Z,1.63
2018-08-30T16:06:50.819Z,1.80
2018-08-30T16:09:17.869Z,1.70
2018-08-30T16:11:44.982Z,1.90
2018-08-30T16:14:12.105Z,2.07
2018-08-30T16:16:39.205Z,1.60
2018-08-30T16:19:06.300Z,1.80
2018-08-30T16:21:33.570Z,1.50
2018-08-30T16:24:00.674Z,1.73
2018-08-30T16:26:27.809Z,1.70
2018-08-30T16:28:54.897Z,1.60
2018-08-30T16:31:31.276Z,1.83
2018-08-30T16:33:58.397Z,2.07
2018-08-30T16:36:25.497Z,2.00
2018-08-30T16:38:52.610Z,2.30
2018-08-30T16:41:19.829Z,1.93
2018-08-30T16:43:46.845Z,2.20
2018-08-30T16:46:13.994Z,1.87
2018-08-30T16:48:41.139Z,1.60
2018-08-30T16:51:08.323Z,1.90
2018-08-30T16:53:35.605Z,2.07
2018-08-30T16:56:02.599Z,1.60
2018-08-30T16:58:30.090Z,2.33
2018-08-30T17:00:57.817Z,1.70
2018-08-30T17:03:24.990Z,1.90
2018-08-30T17:05:52.097Z,1.67
2018-08-30T17:08:19.265Z,1.70
2018-08-30T17:10:46.298Z,1.60
2018-08-30T17:13:13.415Z,1.80
2018-08-30T17:15:40.518Z,1.60
2018-08-30T17:18:07.653Z,1.90
2018-08-30T17:20:43.333Z,1.73
2018-08-30T17:23:10.705Z,1.83
2018-08-30T17:25:37.802Z,2.07
2018-08-30T17:28:04.971Z,1.60
2018-08-30T17:30:32.077Z,1.83
2018-08-30T17:32:59.240Z,1.90
2018-08-30T17:35:29.694Z,1.77
2018-08-30T17:37:56.917Z,1.50
2018-08-30T17:40:24.193Z,1.70
2018-08-30T17:42:51.718Z,1.63
2018-08-30T17:45:18.858Z,1.53
2018-08-30T17:47:45.974Z,1.60
2018-08-30T17:50:13.324Z,1.50
2018-08-30T17:52:40.465Z,1.40
2018-08-30T17:55:07.656Z,2.03
2018-08-30T17:57:34.810Z,1.80
2018-08-30T18:00:02.015Z,1.53
2018-08-30T18:02:29.178Z,1.47
2018-08-30T18:04:56.333Z,1.90
2018-08-30T18:07:23.433Z,1.80
2018-08-30T18:09:50.582Z,2.00
2018-08-30T18:12:17.706Z,1.50
2018-08-30T18:14:44.805Z,1.67
2018-08-30T18:17:11.895Z,1.80
2018-08-30T18:19:38.980Z,1.60
2018-08-30T18:22:06.122Z,1.40
2018-08-30T18:24:33.201Z,1.70
2018-08-30T18:27:00.322Z,1.60
2018-08-30T18:29:27.582Z,1.60
2018-08-30T18:31:54.986Z,1.80
2018-08-30T18:34:22.327Z,1.90
2018-08-30T18:36:49.739Z,1.60
2018-08-30T18:39:17.100Z,1.60
2018-08-30T18:41:44.616Z,1.60
2018-08-30T18:44:12.087Z,1.70
2018-08-30T18:46:39.585Z,1.60
2018-08-30T18:49:06.836Z,1.80
2018-08-30T18:51:34.125Z,1.70
2018-08-30T18:54:01.238Z,1.60
2018-08-30T18:56:28.590Z,1.97
2018-08-30T18:58:56.102Z,1.70
2018-08-30T19:01:23.202Z,2.00
2018-08-30T19:03:50.425Z,1.70
2018-08-30T19:06:17.497Z,1.80
2018-08-30T19:08:44.617Z,1.63
2018-08-30T19:11:11.726Z,1.70
2018-08-30T19:13:38.853Z,1.50
2018-08-30T19:16:11.502Z,1.70
2018-08-30T19:18:44.201Z,1.80
2018-08-30T19:21:11.385Z,1.77
2018-08-30T19:23:38.481Z,1.87
2018-08-30T19:26:05.586Z,1.90
2018-08-30T19:28:32.733Z,2.07
2018-08-30T19:30:59.928Z,2.00
2018-08-30T19:33:27.122Z,1.67
2018-08-30T19:35:59.834Z,1.90
2018-08-30T19:38:27.063Z,1.50
2018-08-30T19:40:59.703Z,1.70
2018-08-30T19:43:26.794Z,1.50
2018-08-30T19:45:53.877Z,1.87
2018-08-30T19:48:21.000Z,1.77
2018-08-30T19:50:48.085Z,2.10
2018-08-30T19:53:15.177Z,2.00
2018-08-30T19:55:42.264Z,1.90
2018-08-30T19:58:09.386Z,1.83
2018-08-30T20:00:36.468Z,2.00
2018-08-30T20:03:03.581Z,1.63
2018-08-30T20:05:30.669Z,2.17
2018-08-30T20:07:57.946Z,1.77
2018-08-30T20:10:25.304Z,2.30
2018-08-30T20:12:52.454Z,1.77
2018-08-30T20:15:19.666Z,2.13
2018-08-30T20:17:46.758Z,2.23
2018-08-30T20:20:13.873Z,2.60
2018-08-30T20:22:41.071Z,2.10
2018-08-30T20:25:08.178Z,1.87
2018-08-30T20:27:35.475Z,2.20
2018-08-30T20:30:02.617Z,1.97
2018-08-30T20:32:29.849Z,2.00
2018-08-30T20:34:56.955Z,1.90
2018-08-30T20:37:24.058Z,1.90
2018-08-30T20:39:51.193Z,1.93
2018-08-30T20:42:18.285Z,2.30
2018-08-30T20:44:45.436Z,2.20
2018-08-30T20:47:13.514Z,2.30
2018-08-30T20:49:40.573Z,2.23
2018-08-30T20:52:08.033Z,2.30
2018-08-30T20:54:35.215Z,2.90
2018-08-30T20:57:02.314Z,1.73
2018-08-30T20:59:29.477Z,2.10
2018-08-30T21:01:56.702Z,2.53
2018-08-30T21:04:23.955Z,2.33
2018-08-30T21:06:51.056Z,2.07
2018-08-30T21:09:18.202Z,2.20
2018-08-30T21:11:45.442Z,1.87
2018-08-30T21:14:12.531Z,2.10
2018-08-30T21:16:39.626Z,2.20
2018-08-30T21:19:06.718Z,2.13
2018-08-30T21:21:33.813Z,2.07
2018-08-30T21:24:00.948Z,2.30
2018-08-30T21:26:28.041Z,2.40
2018-08-30T21:28:55.150Z,2.40
2018-08-30T21:31:22.546Z,2.27
2018-08-30T21:33:49.622Z,2.20
2018-08-30T21:36:16.794Z,3.30
2018-08-30T21:38:44.157Z,2.23
2018-08-30T21:41:11.244Z,2.10
2018-08-30T21:43:38.329Z,2.60
2018-08-30T21:46:05.441Z,2.70
2018-08-30T21:48:32.521Z,3.07
2018-08-30T21:50:59.629Z,2.83
2018-08-30T21:53:26.794Z,2.50
2018-08-30T21:55:54.227Z,2.90
2018-08-30T21:58:21.321Z,2.27
2018-08-30T22:00:48.411Z,2.30
2018-08-30T22:03:15.497Z,2.13
2018-08-30T22:05:42.596Z,2.70
2018-08-30T22:08:09.774Z,2.70
2018-08-30T22:10:36.837Z,2.47
2018-08-30T22:13:03.956Z,2.40
2018-08-30T22:15:31.130Z,2.40
2018-08-30T22:17:58.301Z,2.50
2018-08-30T22:20:25.385Z,2.60
2018-08-30T22:22:52.493Z,2.50
2018-08-30T22:25:19.578Z,2.67
2018-08-30T22:27:46.673Z,2.60
2018-08-30T22:30:13.766Z,2.27
2018-08-30T22:32:40.861Z,2.40
2018-08-30T22:35:08.039Z,2.80
2018-08-30T22:37:36.090Z,2.40
2018-08-30T22:40:03.874Z,2.50
2018-08-30T22:42:31.248Z,2.40
2018-08-30T22:44:58.375Z,2.80
2018-08-30T22:47:25.872Z,2.50
2018-08-30T22:49:52.969Z,2.60
2018-08-30T22:52:20.055Z,2.57
2018-08-30T22:54:47.172Z,2.33
2018-08-30T22:57:14.270Z,2.40
2018-08-30T22:59:41.361Z,2.30
2018-08-30T23:02:08.494Z,2.60
2018-08-30T23:04:35.594Z,2.43
2018-08-30T23:07:02.714Z,2.30
2018-08-30T23:09:29.788Z,2.50
2018-08-30T23:11:56.901Z,2.63
2018-08-30T23:14:24.006Z,2.70
2018-08-30T23:16:51.097Z,2.60
2018-08-30T23:19:18.199Z,2.80
2018-08-30T23:21:45.283Z,2.70
2018-08-30T23:24:12.376Z,2.80
2018-08-30T23:26:39.518Z,2.43
2018-08-30T23:29:06.615Z,2.93
2018-08-30T23:31:33.938Z,2.70
2018-08-30T23:34:01.030Z,3.10
2018-08-30T23:36:28.122Z,2.40
2018-08-30T23:38:55.213Z,2.70
2018-08-30T23:41:22.310Z,2.53
2018-08-30T23:43:49.444Z,2.70
2018-08-30T23:46:16.522Z,2.60
2018-08-30T23:48:43.773Z,2.57
2018-08-30T23:51:10.902Z,2.80
2018-08-30T23:53:37.998Z,2.80
2018-08-30T23:56:05.130Z,2.80
2018-08-30T23:58:37.926Z,2.50
